sensor_id;sensor_type;location;lat;lon;timestamp;pressure;altitude;pressure_sealevel;temperature;humidity
39357;BME280;25077;50.302;18.996;2022-11-15T00:00:10;98484.38;;;4.26;77.18
39357;BME280;25077;50.302;18.996;2022-11-15T00:03:31;98482.78;;;4.25;77.21
39357;BME280;25077;50.302;18.996;2022-11-15T00:06:52;98479.63;;;4.23;76.52
39357;BME280;25077;50.302;18.996;2022-11-15T00:10:13;98472.06;;;4.25;76.42
39357;BME280;25077;50.302;18.996;2022-11-15T00:13:33;98475.69;;;4.29;76.71
39357;BME280;25077;50.302;18.996;2022-11-15T00:16:54;98467.06;;;4.32;77.21
39357;BME280;25077;50.302;18.996;2022-11-15T00:20:14;98467.84;;;4.32;76.45
39357;BME280;25077;50.302;18.996;2022-11-15T00:23:36;98463.59;;;4.31;77.27
39357;BME280;25077;50.302;18.996;2022-11-15T00:26:56;98462.16;;;4.34;77.68
39357;BME280;25077;50.302;18.996;2022-11-15T00:30:17;98456.78;;;4.34;76.25
39357;BME280;25077;50.302;18.996;2022-11-15T00:33:37;98450.97;;;4.32;76.81
39357;BME280;25077;50.302;18.996;2022-11-15T00:36:57;98445.41;;;4.28;77.18
39357;BME280;25077;50.302;18.996;2022-11-15T00:40:19;98438.16;;;4.29;77.06
39357;BME280;25077;50.302;18.996;2022-11-15T00:43:40;98435.03;;;4.27;77.15
39357;BME280;25077;50.302;18.996;2022-11-15T00:47:02;98429.94;;;4.25;77.01
39357;BME280;25077;50.302;18.996;2022-11-15T00:50:23;98425.22;;;4.22;77.63
39357;BME280;25077;50.302;18.996;2022-11-15T00:53:43;98422.34;;;4.19;76.84
39357;BME280;25077;50.302;18.996;2022-11-15T00:57:05;98431.94;;;4.20;77.73
39357;BME280;25077;50.302;18.996;2022-11-15T01:00:25;98426.59;;;4.20;77.67
39357;BME280;25077;50.302;18.996;2022-11-15T01:03:45;98415.41;;;4.18;76.80
39357;BME280;25077;50.302;18.996;2022-11-15T01:07:05;98418.09;;;4.18;78.03
39357;BME280;25077;50.302;18.996;2022-11-15T01:10:26;98422.97;;;4.15;78.70
39357;BME280;25077;50.302;18.996;2022-11-15T01:13:48;98420.28;;;4.15;77.70
39357;BME280;25077;50.302;18.996;2022-11-15T01:17:08;98413.66;;;4.13;77.70
39357;BME280;25077;50.302;18.996;2022-11-15T01:20:28;98399.47;;;4.12;78.49
39357;BME280;25077;50.302;18.996;2022-11-15T01:23:52;98406.25;;;4.10;77.74
39357;BME280;25077;50.302;18.996;2022-11-15T01:27:12;98407.66;;;4.07;77.98
39357;BME280;25077;50.302;18.996;2022-11-15T01:30:35;98402.28;;;4.07;78.60
39357;BME280;25077;50.302;18.996;2022-11-15T01:33:55;98396.94;;;4.07;77.54
39357;BME280;25077;50.302;18.996;2022-11-15T01:37:16;98392.22;;;4.04;78.38
39357;BME280;25077;50.302;18.996;2022-11-15T01:40:36;98379.72;;;4.00;78.25
39357;BME280;25077;50.302;18.996;2022-11-15T01:44:25;98387.31;;;3.98;78.65
39357;BME280;25077;50.302;18.996;2022-11-15T01:47:41;98378.63;;;3.92;78.71
39357;BME280;25077;50.302;18.996;2022-11-15T01:51:09;98372.31;;;3.88;78.26
39357;BME280;25077;50.302;18.996;2022-11-15T01:54:31;98378.25;;;3.85;78.32
39357;BME280;25077;50.302;18.996;2022-11-15T01:57:53;98372.13;;;3.84;77.62
39357;BME280;25077;50.302;18.996;2022-11-15T02:05:42;98358.22;;;3.74;77.99
39357;BME280;25077;50.302;18.996;2022-11-15T02:09:03;98349.84;;;3.67;79.26
39357;BME280;25077;50.302;18.996;2022-11-15T02:12:23;98346.34;;;3.57;78.05
39357;BME280;25077;50.302;18.996;2022-11-15T02:15:51;98349.97;;;3.53;78.30
39357;BME280;25077;50.302;18.996;2022-11-15T02:19:27;98344.44;;;3.49;78.88
39357;BME280;25077;50.302;18.996;2022-11-15T02:23:04;98328.81;;;3.43;78.31
39357;BME280;25077;50.302;18.996;2022-11-15T02:30:41;98324.53;;;3.33;79.08
39357;BME280;25077;50.302;18.996;2022-11-15T02:34:06;98333.66;;;3.32;78.12
39357;BME280;25077;50.302;18.996;2022-11-15T02:37:39;98330.66;;;3.33;78.29
39357;BME280;25077;50.302;18.996;2022-11-15T02:41:04;98326.09;;;3.34;78.02
39357;BME280;25077;50.302;18.996;2022-11-15T02:44:30;98330.38;;;3.35;78.53
39357;BME280;25077;50.302;18.996;2022-11-15T02:47:55;98329.28;;;3.36;79.21
39357;BME280;25077;50.302;18.996;2022-11-15T02:51:18;98322.50;;;3.39;79.07
39357;BME280;25077;50.302;18.996;2022-11-15T02:54:38;98322.19;;;3.40;79.29
39357;BME280;25077;50.302;18.996;2022-11-15T02:58:11;98312.13;;;3.46;78.30
39357;BME280;25077;50.302;18.996;2022-11-15T03:05:58;98305.97;;;3.45;78.00
39357;BME280;25077;50.302;18.996;2022-11-15T03:09:29;98302.53;;;3.45;79.35
39357;BME280;25077;50.302;18.996;2022-11-15T03:12:56;98305.97;;;3.45;78.22
39357;BME280;25077;50.302;18.996;2022-11-15T03:16:20;98306.78;;;3.46;78.68
39357;BME280;25077;50.302;18.996;2022-11-15T03:19:46;98303.94;;;3.42;79.74
39357;BME280;25077;50.302;18.996;2022-11-15T03:23:10;98295.91;;;3.42;79.38
39357;BME280;25077;50.302;18.996;2022-11-15T03:26:32;98284.56;;;3.45;79.13
39357;BME280;25077;50.302;18.996;2022-11-15T03:30:02;98280.81;;;3.46;78.65
39357;BME280;25077;50.302;18.996;2022-11-15T03:33:24;98279.22;;;3.45;78.60
39357;BME280;25077;50.302;18.996;2022-11-15T03:36:45;98281.09;;;3.45;79.45
39357;BME280;25077;50.302;18.996;2022-11-15T03:40:08;98276.25;;;3.47;79.02
39357;BME280;25077;50.302;18.996;2022-11-15T03:43:36;98270.09;;;3.46;78.76
39357;BME280;25077;50.302;18.996;2022-11-15T03:51:20;98258.91;;;3.44;79.61
39357;BME280;25077;50.302;18.996;2022-11-15T03:54:48;98259.69;;;3.45;79.40
39357;BME280;25077;50.302;18.996;2022-11-15T03:58:10;98258.91;;;3.44;78.30
39357;BME280;25077;50.302;18.996;2022-11-15T04:01:31;98255.25;;;3.40;80.06
39357;BME280;25077;50.302;18.996;2022-11-15T04:04:51;98250.41;;;3.42;79.43
39357;BME280;25077;50.302;18.996;2022-11-15T04:08:11;98250.53;;;3.46;78.70
39357;BME280;25077;50.302;18.996;2022-11-15T04:11:31;98245.50;;;3.44;78.81
39357;BME280;25077;50.302;18.996;2022-11-15T04:20:30;98244.22;;;3.33;79.07
39357;BME280;25077;50.302;18.996;2022-11-15T04:24:09;98229.41;;;3.27;79.71
39357;BME280;25077;50.302;18.996;2022-11-15T04:27:32;98228.94;;;3.25;77.92
39357;BME280;25077;50.302;18.996;2022-11-15T04:30:53;98236.19;;;3.24;78.52
39357;BME280;25077;50.302;18.996;2022-11-15T04:34:13;98224.38;;;3.25;78.32
39357;BME280;25077;50.302;18.996;2022-11-15T04:37:35;98224.03;;;3.27;78.95
39357;BME280;25077;50.302;18.996;2022-11-15T04:40:55;98225.16;;;3.26;78.21
39357;BME280;25077;50.302;18.996;2022-11-15T04:44:15;98225.63;;;3.28;78.87
39357;BME280;25077;50.302;18.996;2022-11-15T04:52:22;98219.34;;;3.24;78.53
39357;BME280;25077;50.302;18.996;2022-11-15T04:55:45;98214.59;;;3.21;79.22
39357;BME280;25077;50.302;18.996;2022-11-15T04:59:06;98207.16;;;3.18;77.80
39357;BME280;25077;50.302;18.996;2022-11-15T05:02:26;98202.13;;;3.16;79.20
39357;BME280;25077;50.302;18.996;2022-11-15T05:06:07;98196.78;;;3.16;78.30
39357;BME280;25077;50.302;18.996;2022-11-15T05:09:26;98209.69;;;3.14;79.08
39357;BME280;25077;50.302;18.996;2022-11-15T05:12:48;98192.66;;;3.10;77.68
39357;BME280;25077;50.302;18.996;2022-11-15T05:21:47;98184.00;;;3.04;79.34
39357;BME280;25077;50.302;18.996;2022-11-15T05:25:08;98185.56;;;3.05;78.57
39357;BME280;25077;50.302;18.996;2022-11-15T05:28:29;98178.81;;;3.08;79.23
39357;BME280;25077;50.302;18.996;2022-11-15T05:36:37;98171.91;;;3.07;79.53
39357;BME280;25077;50.302;18.996;2022-11-15T05:39:58;98166.22;;;3.08;77.92
39357;BME280;25077;50.302;18.996;2022-11-15T05:43:18;98163.56;;;3.08;78.02
39357;BME280;25077;50.302;18.996;2022-11-15T05:46:40;98161.81;;;3.04;78.85
39357;BME280;25077;50.302;18.996;2022-11-15T05:50:02;98162.44;;;3.01;78.48
39357;BME280;25077;50.302;18.996;2022-11-15T05:53:24;98156.91;;;2.97;79.76
39357;BME280;25077;50.302;18.996;2022-11-15T05:56:45;98153.78;;;2.95;79.50
39357;BME280;25077;50.302;18.996;2022-11-15T06:00:07;98158.47;;;2.98;78.82
39357;BME280;25077;50.302;18.996;2022-11-15T06:04:37;98161.63;;;3.00;79.52
39357;BME280;25077;50.302;18.996;2022-11-15T06:07:57;98158.66;;;3.02;79.81
39357;BME280;25077;50.302;18.996;2022-11-15T06:11:18;98166.22;;;3.08;78.51
39357;BME280;25077;50.302;18.996;2022-11-15T06:14:38;98158.06;;;3.14;79.26
39357;BME280;25077;50.302;18.996;2022-11-15T06:17:58;98166.72;;;3.19;79.46
39357;BME280;25077;50.302;18.996;2022-11-15T06:21:21;98173.00;;;3.23;79.16
39357;BME280;25077;50.302;18.996;2022-11-15T06:24:41;98176.97;;;3.26;78.92
39357;BME280;25077;50.302;18.996;2022-11-15T06:28:03;98170.06;;;3.25;78.45
39357;BME280;25077;50.302;18.996;2022-11-15T06:31:23;98172.41;;;3.26;78.70
39357;BME280;25077;50.302;18.996;2022-11-15T06:34:44;98172.09;;;3.28;78.16
39357;BME280;25077;50.302;18.996;2022-11-15T06:38:07;98179.19;;;3.32;78.03
39357;BME280;25077;50.302;18.996;2022-11-15T06:41:28;98190.69;;;3.33;78.14
39357;BME280;25077;50.302;18.996;2022-11-15T06:44:48;98196.81;;;3.33;77.31
39357;BME280;25077;50.302;18.996;2022-11-15T06:52:54;98189.25;;;3.27;79.06
39357;BME280;25077;50.302;18.996;2022-11-15T06:56:15;98186.09;;;3.25;79.13
39357;BME280;25077;50.302;18.996;2022-11-15T06:59:36;98200.09;;;3.22;77.69
39357;BME280;25077;50.302;18.996;2022-11-15T07:02:59;98196.97;;;3.20;78.01
39357;BME280;25077;50.302;18.996;2022-11-15T07:06:20;98190.69;;;3.24;77.93
39357;BME280;25077;50.302;18.996;2022-11-15T07:09:40;98181.69;;;3.29;77.93
39357;BME280;25077;50.302;18.996;2022-11-15T07:13:01;98188.78;;;3.33;78.34
39357;BME280;25077;50.302;18.996;2022-11-15T07:21:58;98178.06;;;3.33;78.29
39357;BME280;25077;50.302;18.996;2022-11-15T07:25:18;98181.72;;;3.38;79.31
39357;BME280;25077;50.302;18.996;2022-11-15T07:28:40;98176.22;;;3.43;77.79
39357;BME280;25077;50.302;18.996;2022-11-15T07:36:46;98174.19;;;3.48;78.30
39357;BME280;25077;50.302;18.996;2022-11-15T07:40:08;98175.13;;;3.52;79.08
39357;BME280;25077;50.302;18.996;2022-11-15T07:43:29;98177.16;;;3.55;78.38
39357;BME280;25077;50.302;18.996;2022-11-15T07:46:52;98172.75;;;3.59;79.20
39357;BME280;25077;50.302;18.996;2022-11-15T07:50:13;98175.75;;;3.67;78.28
39357;BME280;25077;50.302;18.996;2022-11-15T07:53:33;98174.34;;;3.78;79.07
39357;BME280;25077;50.302;18.996;2022-11-15T07:56:54;98167.22;;;3.91;78.28
39357;BME280;25077;50.302;18.996;2022-11-15T08:00:15;98167.38;;;4.03;78.50
39357;BME280;25077;50.302;18.996;2022-11-15T08:08:23;98161.84;;;4.34;78.57
39357;BME280;25077;50.302;18.996;2022-11-15T08:11:43;98161.34;;;4.49;78.45
39357;BME280;25077;50.302;18.996;2022-11-15T08:15:04;98154.97;;;4.62;78.01
39357;BME280;25077;50.302;18.996;2022-11-15T08:18:24;98152.41;;;4.75;77.65
39357;BME280;25077;50.302;18.996;2022-11-15T08:21:44;98151.25;;;4.84;77.05
39357;BME280;25077;50.302;18.996;2022-11-15T08:25:06;98151.38;;;4.88;77.23
39357;BME280;25077;50.302;18.996;2022-11-15T08:28:27;98148.50;;;4.93;76.77
39357;BME280;25077;50.302;18.996;2022-11-15T08:31:47;98151.50;;;5.00;77.09
39357;BME280;25077;50.302;18.996;2022-11-15T08:35:08;98145.72;;;5.10;77.66
39357;BME280;25077;50.302;18.996;2022-11-15T08:38:28;98144.25;;;5.21;77.44
39357;BME280;25077;50.302;18.996;2022-11-15T08:41:50;98148.66;;;5.26;77.00
39357;BME280;25077;50.302;18.996;2022-11-15T08:45:10;98146.38;;;5.37;77.20
39357;BME280;25077;50.302;18.996;2022-11-15T08:53:16;98135.09;;;5.64;77.54
39357;BME280;25077;50.302;18.996;2022-11-15T08:56:36;98145.91;;;5.77;76.95
39357;BME280;25077;50.302;18.996;2022-11-15T08:59:58;98146.63;;;5.86;76.97
39357;BME280;25077;50.302;18.996;2022-11-15T09:08:04;98142.91;;;6.11;76.71
39357;BME280;25077;50.302;18.996;2022-11-15T09:11:24;98139.16;;;6.24;76.49
39357;BME280;25077;50.302;18.996;2022-11-15T09:14:45;98128.84;;;6.39;76.56
39357;BME280;25077;50.302;18.996;2022-11-15T09:18:07;98139.31;;;6.52;76.16
39357;BME280;25077;50.302;18.996;2022-11-15T09:21:28;98126.09;;;6.60;76.21
39357;BME280;25077;50.302;18.996;2022-11-15T09:24:48;98115.47;;;6.75;76.40
39357;BME280;25077;50.302;18.996;2022-11-15T09:28:09;98117.16;;;6.92;75.83
39357;BME280;25077;50.302;18.996;2022-11-15T09:31:29;98113.88;;;7.11;75.41
39357;BME280;25077;50.302;18.996;2022-11-15T09:36:03;98102.38;;;7.39;74.57
39357;BME280;25077;50.302;18.996;2022-11-15T09:39:24;98103.69;;;7.57;74.43
39357;BME280;25077;50.302;18.996;2022-11-15T09:43:04;98100.88;;;7.81;74.23
39357;BME280;25077;50.302;18.996;2022-11-15T09:46:36;98091.09;;;8.05;73.75
39357;BME280;25077;50.302;18.996;2022-11-15T09:50:36;98081.22;;;8.25;72.47
39357;BME280;25077;50.302;18.996;2022-11-15T09:53:47;98069.31;;;8.42;73.17
39357;BME280;25077;50.302;18.996;2022-11-15T09:56:51;98060.47;;;8.57;71.99
39357;BME280;25077;50.302;18.996;2022-11-15T10:00:00;98063.91;;;8.73;71.43
39357;BME280;25077;50.302;18.996;2022-11-15T10:07:46;98033.59;;;9.15;69.42
39357;BME280;25077;50.302;18.996;2022-11-15T10:10:55;98042.84;;;9.33;69.48
39357;BME280;25077;50.302;18.996;2022-11-15T10:14:01;98042.81;;;9.53;69.16
39357;BME280;25077;50.302;18.996;2022-11-15T10:17:16;98041.69;;;9.73;68.86
39357;BME280;25077;50.302;18.996;2022-11-15T10:20:24;98038.94;;;9.92;67.97
39357;BME280;25077;50.302;18.996;2022-11-15T10:23:27;98040.88;;;10.11;66.02
39357;BME280;25077;50.302;18.996;2022-11-15T10:26:31;98033.44;;;10.31;66.91
39357;BME280;25077;50.302;18.996;2022-11-15T10:29:33;98034.47;;;10.46;66.53
39357;BME280;25077;50.302;18.996;2022-11-15T10:37:03;98031.03;;;10.75;65.52
39357;BME280;25077;50.302;18.996;2022-11-15T10:40:14;98029.03;;;10.95;66.20
39357;BME280;25077;50.302;18.996;2022-11-15T10:43:18;98029.03;;;11.25;65.46
39357;BME280;25077;50.302;18.996;2022-11-15T10:46:22;98020.94;;;11.63;64.50
39357;BME280;25077;50.302;18.996;2022-11-15T10:53:52;98020.25;;;12.06;62.19
39357;BME280;25077;50.302;18.996;2022-11-15T10:56:55;98011.31;;;12.06;63.18
39357;BME280;25077;50.302;18.996;2022-11-15T11:00:02;98011.69;;;12.04;62.88
39357;BME280;25077;50.302;18.996;2022-11-15T11:07:33;98011.84;;;12.22;62.88
39357;BME280;25077;50.302;18.996;2022-11-15T11:10:35;98000.66;;;12.31;62.54
39357;BME280;25077;50.302;18.996;2022-11-15T11:13:38;98004.53;;;12.30;62.43
39357;BME280;25077;50.302;18.996;2022-11-15T11:16:47;97997.13;;;12.23;60.82
39357;BME280;25077;50.302;18.996;2022-11-15T11:24:22;97999.31;;;12.07;59.72
39357;BME280;25077;50.302;18.996;2022-11-15T11:27:36;97987.72;;;12.14;60.01
39357;BME280;25077;50.302;18.996;2022-11-15T11:30:50;97970.06;;;12.34;60.05
39357;BME280;25077;50.302;18.996;2022-11-15T11:34:04;97968.72;;;12.69;61.21
39357;BME280;25077;50.302;18.996;2022-11-15T11:37:14;97966.59;;;12.96;60.39
39357;BME280;25077;50.302;18.996;2022-11-15T11:40:28;97972.50;;;13.12;60.09
39357;BME280;25077;50.302;18.996;2022-11-15T11:43:38;97953.09;;;13.17;59.32
39357;BME280;25077;50.302;18.996;2022-11-15T11:46:48;97960.19;;;13.47;54.18
39357;BME280;25077;50.302;18.996;2022-11-15T11:54:23;97945.50;;;14.33;58.32
39357;BME280;25077;50.302;18.996;2022-11-15T11:57:34;97948.09;;;15.01;54.22
39357;BME280;25077;50.302;18.996;2022-11-15T12:00:43;97935.16;;;15.86;56.41
39357;BME280;25077;50.302;18.996;2022-11-15T12:03:51;97930.81;;;16.44;53.81
39357;BME280;25077;50.302;18.996;2022-11-15T12:06:58;97938.66;;;16.79;51.06
39357;BME280;25077;50.302;18.996;2022-11-15T12:10:05;97933.34;;;17.03;46.89
39357;BME280;25077;50.302;18.996;2022-11-15T12:13:17;97923.75;;;17.18;52.44
39357;BME280;25077;50.302;18.996;2022-11-15T12:16:24;97915.50;;;16.88;51.17
39357;BME280;25077;50.302;18.996;2022-11-15T12:19:29;97913.38;;;16.68;49.56
39357;BME280;25077;50.302;18.996;2022-11-15T12:22:38;97902.25;;;16.48;48.95
39357;BME280;25077;50.302;18.996;2022-11-15T12:25:45;97891.19;;;16.25;50.07
39357;BME280;25077;50.302;18.996;2022-11-15T12:28:53;97897.28;;;15.91;48.35
39357;BME280;25077;50.302;18.996;2022-11-15T12:31:58;97900.31;;;15.48;51.01
39357;BME280;25077;50.302;18.996;2022-11-15T12:47:03;97882.88;;;13.80;51.46
39357;BME280;25077;50.302;18.996;2022-11-15T12:50:12;97882.84;;;13.58;52.98
39357;BME280;25077;50.302;18.996;2022-11-15T12:53:28;97865.34;;;13.34;52.45
39357;BME280;25077;50.302;18.996;2022-11-15T12:56:31;97871.13;;;13.19;53.57
39357;BME280;25077;50.302;18.996;2022-11-15T12:59:49;97862.13;;;12.97;52.91
39357;BME280;25077;50.302;18.996;2022-11-15T13:08:36;97856.91;;;12.56;54.31
39357;BME280;25077;50.302;18.996;2022-11-15T13:11:47;97848.66;;;12.38;55.14
39357;BME280;25077;50.302;18.996;2022-11-15T13:14:53;97850.53;;;12.27;55.94
39357;BME280;25077;50.302;18.996;2022-11-15T13:17:55;97843.56;;;12.26;55.91
39357;BME280;25077;50.302;18.996;2022-11-15T13:20:58;97843.53;;;12.22;56.40
39357;BME280;25077;50.302;18.996;2022-11-15T13:24:00;97845.09;;;12.23;55.96
39357;BME280;25077;50.302;18.996;2022-11-15T13:27:10;97847.81;;;12.23;55.93
39357;BME280;25077;50.302;18.996;2022-11-15T13:30:26;97838.84;;;12.16;57.04
39357;BME280;25077;50.302;18.996;2022-11-15T13:37:56;97836.34;;;11.89;57.41
39357;BME280;25077;50.302;18.996;2022-11-15T13:41:11;97842.53;;;11.86;58.28
39357;BME280;25077;50.302;18.996;2022-11-15T13:44:20;97830.06;;;11.78;57.10
39357;BME280;25077;50.302;18.996;2022-11-15T13:47:25;97821.88;;;11.71;58.20
39357;BME280;25077;50.302;18.996;2022-11-15T13:54:59;97816.78;;;11.66;57.48
39357;BME280;25077;50.302;18.996;2022-11-15T13:58:03;97811.75;;;11.68;57.37
39357;BME280;25077;50.302;18.996;2022-11-15T14:01:15;97813.69;;;11.64;58.11
39357;BME280;25077;50.302;18.996;2022-11-15T14:04:23;97809.00;;;11.61;58.59
39357;BME280;25077;50.302;18.996;2022-11-15T14:07:27;97812.06;;;11.55;58.24
39357;BME280;25077;50.302;18.996;2022-11-15T14:10:31;97813.94;;;11.51;58.77
39357;BME280;25077;50.302;18.996;2022-11-15T14:13:34;97822.03;;;11.48;57.99
39357;BME280;25077;50.302;18.996;2022-11-15T14:16:38;97808.06;;;11.42;58.63
39357;BME280;25077;50.302;18.996;2022-11-15T14:24:16;97804.50;;;11.35;59.62
39357;BME280;25077;50.302;18.996;2022-11-15T14:27:21;97798.66;;;11.29;58.79
39357;BME280;25077;50.302;18.996;2022-11-15T14:30:23;97803.25;;;11.25;59.75
39357;BME280;25077;50.302;18.996;2022-11-15T14:33:28;97800.84;;;11.16;59.52
39357;BME280;25077;50.302;18.996;2022-11-15T14:40:59;97787.94;;;11.02;60.44
39357;BME280;25077;50.302;18.996;2022-11-15T14:44:01;97782.88;;;10.97;59.64
39357;BME280;25077;50.302;18.996;2022-11-15T14:47:04;97778.94;;;10.95;60.17
39357;BME280;25077;50.302;18.996;2022-11-15T14:50:10;97773.50;;;10.91;59.81
39357;BME280;25077;50.302;18.996;2022-11-15T14:53:13;97772.28;;;10.85;61.13
39357;BME280;25077;50.302;18.996;2022-11-15T14:56:17;97769.16;;;10.83;60.57
39357;BME280;25077;50.302;18.996;2022-11-15T14:59:19;97761.41;;;10.82;61.39
39357;BME280;25077;50.302;18.996;2022-11-15T15:02:22;97759.47;;;10.79;60.32
39357;BME280;25077;50.302;18.996;2022-11-15T15:09:51;97756.31;;;10.73;60.54
39357;BME280;25077;50.302;18.996;2022-11-15T15:12:55;97750.06;;;10.69;61.66
39357;BME280;25077;50.302;18.996;2022-11-15T15:15:57;97747.69;;;10.64;61.25
39357;BME280;25077;50.302;18.996;2022-11-15T15:18:59;97738.34;;;10.58;62.38
39357;BME280;25077;50.302;18.996;2022-11-15T15:22:00;97740.22;;;10.54;60.96
39357;BME280;25077;50.302;18.996;2022-11-15T15:25:07;97737.50;;;10.50;61.81
39357;BME280;25077;50.302;18.996;2022-11-15T15:28:13;97741.31;;;10.45;60.98
39357;BME280;25077;50.302;18.996;2022-11-15T15:31:15;97733.91;;;10.42;62.02
39357;BME280;25077;50.302;18.996;2022-11-15T15:38:45;97738.16;;;10.40;62.08
39357;BME280;25077;50.302;18.996;2022-11-15T15:41:47;97737.72;;;10.38;62.04
39357;BME280;25077;50.302;18.996;2022-11-15T15:44:50;97727.31;;;10.40;62.46
39357;BME280;25077;50.302;18.996;2022-11-15T15:47:53;97735.06;;;10.41;63.04
39357;BME280;25077;50.302;18.996;2022-11-15T15:55:23;97730.41;;;10.38;63.07
39357;BME280;25077;50.302;18.996;2022-11-15T15:58:25;97727.66;;;10.35;61.70
39357;BME280;25077;50.302;18.996;2022-11-15T16:01:28;97716.78;;;10.31;62.70
39357;BME280;25077;50.302;18.996;2022-11-15T16:04:30;97729.91;;;10.29;62.73
39357;BME280;25077;50.302;18.996;2022-11-15T16:07:32;97727.16;;;10.26;62.73
39357;BME280;25077;50.302;18.996;2022-11-15T16:10:34;97725.97;;;10.23;63.09
39357;BME280;25077;50.302;18.996;2022-11-15T16:13:37;97726.28;;;10.18;62.55
39357;BME280;25077;50.302;18.996;2022-11-15T16:16:40;97729.31;;;10.13;62.44
39357;BME280;25077;50.302;18.996;2022-11-15T16:24:09;97737.00;;;10.11;63.17
39357;BME280;25077;50.302;18.996;2022-11-15T16:27:14;97728.84;;;10.07;63.09
39357;BME280;25077;50.302;18.996;2022-11-15T16:30:18;97726.06;;;10.04;63.46
39357;BME280;25077;50.302;18.996;2022-11-15T16:33:22;97719.09;;;9.99;64.27
39357;BME280;25077;50.302;18.996;2022-11-15T16:40:51;97727.41;;;9.87;64.82
39357;BME280;25077;50.302;18.996;2022-11-15T16:43:53;97711.97;;;9.87;64.38
39357;BME280;25077;50.302;18.996;2022-11-15T16:46:55;97717.72;;;9.86;64.23
39357;BME280;25077;50.302;18.996;2022-11-15T16:49:58;97719.25;;;9.83;64.70
39357;BME280;25077;50.302;18.996;2022-11-15T16:53:00;97716.50;;;9.80;64.18
39357;BME280;25077;50.302;18.996;2022-11-15T16:56:02;97714.16;;;9.78;64.70
39357;BME280;25077;50.302;18.996;2022-11-15T16:59:05;97712.25;;;9.79;64.51
39357;BME280;25077;50.302;18.996;2022-11-15T17:02:10;97707.59;;;9.79;64.39
39357;BME280;25077;50.302;18.996;2022-11-15T17:09:41;97700.28;;;9.80;65.17
39357;BME280;25077;50.302;18.996;2022-11-15T17:12:43;97700.25;;;9.76;65.68
39357;BME280;25077;50.302;18.996;2022-11-15T17:15:45;97700.19;;;9.73;64.91
39357;BME280;25077;50.302;18.996;2022-11-15T17:18:50;97697.06;;;9.70;65.48
39357;BME280;25077;50.302;18.996;2022-11-15T17:26:20;97693.91;;;9.65;65.01
39357;BME280;25077;50.302;18.996;2022-11-15T17:29:23;97687.28;;;9.62;65.34
39357;BME280;25077;50.302;18.996;2022-11-15T17:32:24;97693.47;;;9.63;66.16
39357;BME280;25077;50.302;18.996;2022-11-15T17:35:26;97687.28;;;9.62;66.64
39357;BME280;25077;50.302;18.996;2022-11-15T17:38:28;97683.81;;;9.62;66.85
39357;BME280;25077;50.302;18.996;2022-11-15T17:41:32;97670.59;;;9.57;65.60
39357;BME280;25077;50.302;18.996;2022-11-15T17:44:33;97677.09;;;9.52;66.00
39357;BME280;25077;50.302;18.996;2022-11-15T17:47:36;97670.53;;;9.50;66.08
39357;BME280;25077;50.302;18.996;2022-11-15T17:55:06;97661.19;;;9.47;66.47
39357;BME280;25077;50.302;18.996;2022-11-15T17:58:09;97652.75;;;9.49;66.38
39357;BME280;25077;50.302;18.996;2022-11-15T18:01:15;97640.00;;;9.49;67.14
39357;BME280;25077;50.302;18.996;2022-11-15T18:04:17;97640.38;;;9.48;66.46
39357;BME280;25077;50.302;18.996;2022-11-15T18:11:47;97633.31;;;9.39;67.03
39357;BME280;25077;50.302;18.996;2022-11-15T18:14:52;97618.56;;;9.33;66.55
39357;BME280;25077;50.302;18.996;2022-11-15T18:17:54;97614.69;;;9.31;67.67
39357;BME280;25077;50.302;18.996;2022-11-15T18:21:00;97602.66;;;9.28;67.42
39357;BME280;25077;50.302;18.996;2022-11-15T18:24:03;97612.31;;;9.29;67.86
39357;BME280;25077;50.302;18.996;2022-11-15T18:27:06;97612.31;;;9.29;66.64
39357;BME280;25077;50.302;18.996;2022-11-15T18:30:10;97617.38;;;9.31;66.73
39357;BME280;25077;50.302;18.996;2022-11-15T18:33:12;97617.38;;;9.31;66.86
39357;BME280;25077;50.302;18.996;2022-11-15T18:36:16;97619.72;;;9.32;67.67
39357;BME280;25077;50.302;18.996;2022-11-15T18:39:19;97627.84;;;9.36;66.76
39357;BME280;25077;50.302;18.996;2022-11-15T18:42:21;97632.13;;;9.37;66.90
39357;BME280;25077;50.302;18.996;2022-11-15T18:45:24;97622.44;;;9.36;66.44
39357;BME280;25077;50.302;18.996;2022-11-15T18:48:28;97628.66;;;9.36;66.66
39357;BME280;25077;50.302;18.996;2022-11-15T18:55:59;97619.34;;;9.34;67.30
39357;BME280;25077;50.302;18.996;2022-11-15T18:59:02;97623.97;;;9.33;67.41
39357;BME280;25077;50.302;18.996;2022-11-15T19:02:09;97620.84;;;9.31;67.21
39357;BME280;25077;50.302;18.996;2022-11-15T19:05:11;97618.47;;;9.26;66.84
39357;BME280;25077;50.302;18.996;2022-11-15T19:08:15;97615.31;;;9.21;68.00
39357;BME280;25077;50.302;18.996;2022-11-15T19:11:20;97615.25;;;9.17;67.33
39357;BME280;25077;50.302;18.996;2022-11-15T19:14:25;97619.41;;;9.11;68.32
39357;BME280;25077;50.302;18.996;2022-11-15T19:17:29;97607.34;;;9.05;67.59
39357;BME280;25077;50.302;18.996;2022-11-15T19:24:58;97614.22;;;8.99;67.53
39357;BME280;25077;50.302;18.996;2022-11-15T19:28:00;97613.44;;;8.98;68.72
39357;BME280;25077;50.302;18.996;2022-11-15T19:31:03;97608.81;;;8.99;67.68
39357;BME280;25077;50.302;18.996;2022-11-15T19:34:08;97606.47;;;8.97;68.83
39357;BME280;25077;50.302;18.996;2022-11-15T19:41:38;97607.25;;;8.98;68.38
39357;BME280;25077;50.302;18.996;2022-11-15T19:44:41;97605.69;;;8.97;68.76
39357;BME280;25077;50.302;18.996;2022-11-15T19:47:43;97602.16;;;8.93;68.05
39357;BME280;25077;50.302;18.996;2022-11-15T19:50:47;97598.63;;;8.88;68.58
39357;BME280;25077;50.302;18.996;2022-11-15T19:53:51;97606.25;;;8.83;68.34
39357;BME280;25077;50.302;18.996;2022-11-15T19:56:53;97598.91;;;8.83;69.00
39357;BME280;25077;50.302;18.996;2022-11-15T19:59:56;97592.38;;;8.84;68.18
39357;BME280;25077;50.302;18.996;2022-11-15T20:02:58;97585.38;;;8.80;67.99
39357;BME280;25077;50.302;18.996;2022-11-15T20:10:29;97578.78;;;8.77;69.04